createdAt,value
2018-04-26T00:02:22.820Z,12.40
2018-04-26T00:04:51.047Z,12.10
2018-04-26T00:07:18.485Z,12.00
2018-04-26T00:09:45.921Z,11.90
2018-04-26T00:12:13.428Z,11.80
2018-04-26T00:14:40.859Z,11.70
2018-04-26T00:17:08.300Z,11.50
2018-04-26T00:19:35.750Z,11.40
2018-04-26T00:22:03.195Z,11.30
2018-04-26T00:24:30.641Z,11.20
2018-04-26T00:26:58.860Z,11.00
2018-04-26T00:29:26.309Z,11.00
2018-04-26T00:31:53.760Z,11.00
2018-04-26T00:34:21.219Z,10.90
2018-04-26T00:36:48.656Z,10.80
2018-04-26T00:39:16.114Z,10.70
2018-04-26T00:41:43.583Z,10.70
2018-04-26T00:44:11.016Z,10.60
2018-04-26T00:46:39.233Z,10.60
2018-04-26T00:49:06.696Z,10.60
2018-04-26T00:51:45.913Z,10.60
2018-04-26T00:54:13.365Z,10.60
2018-04-26T00:56:40.824Z,10.60
2018-04-26T00:59:08.273Z,10.50
2018-04-26T01:01:35.715Z,10.50
2018-04-26T01:04:03.191Z,10.50
2018-04-26T01:06:30.626Z,10.40
2018-04-26T01:08:58.066Z,10.40
2018-04-26T01:11:25.520Z,10.40
2018-04-26T01:13:52.991Z,10.40
2018-04-26T01:16:20.434Z,10.30
2018-04-26T01:18:47.881Z,10.30
2018-04-26T01:21:15.338Z,10.30
2018-04-26T01:23:42.784Z,10.30
2018-04-26T01:26:11.006Z,10.30
2018-04-26T01:28:38.460Z,10.30
2018-04-26T01:31:05.908Z,10.30
2018-04-26T01:33:33.345Z,10.30
2018-04-26T01:36:00.903Z,10.30
2018-04-26T01:38:28.357Z,10.30
2018-04-26T01:40:55.796Z,10.30
2018-04-26T01:43:23.251Z,10.30
2018-04-26T01:45:50.709Z,10.30
2018-04-26T01:48:18.160Z,10.30
2018-04-26T01:50:45.636Z,10.30
2018-04-26T01:53:13.097Z,10.30
2018-04-26T01:55:40.577Z,10.30
2018-04-26T01:58:08.012Z,10.30
2018-04-26T02:00:35.446Z,10.30
2018-04-26T02:03:03.019Z,10.30
2018-04-26T02:05:30.468Z,10.20
2018-04-26T02:07:57.913Z,10.20
2018-04-26T02:10:26.140Z,10.20
2018-04-26T02:12:53.588Z,10.20
2018-04-26T02:15:21.040Z,10.20
2018-04-26T02:17:48.483Z,10.20
2018-04-26T02:20:15.924Z,10.20
2018-04-26T02:22:43.375Z,10.20
2018-04-26T02:25:10.826Z,10.10
2018-04-26T02:27:39.035Z,10.10
2018-04-26T02:30:06.490Z,10.00
2018-04-26T02:32:33.945Z,10.00
2018-04-26T02:35:01.393Z,10.00
2018-04-26T02:37:28.865Z,10.00
2018-04-26T02:39:56.299Z,9.90
2018-04-26T02:42:23.742Z,9.90
2018-04-26T02:44:51.962Z,9.80
2018-04-26T02:47:19.412Z,9.70
2018-04-26T02:49:46.865Z,9.70
2018-04-26T02:52:14.318Z,9.70
2018-04-26T02:54:41.757Z,9.70
2018-04-26T02:57:09.965Z,9.60
2018-04-26T02:59:37.429Z,9.60
2018-04-26T03:02:04.854Z,9.60
2018-04-26T03:04:32.311Z,9.60
2018-04-26T03:07:00.535Z,9.60
2018-04-26T03:09:28.757Z,9.60
2018-04-26T03:11:56.963Z,9.60
2018-04-26T03:14:24.436Z,9.50
2018-04-26T03:16:51.876Z,9.50
2018-04-26T03:19:19.347Z,9.50
2018-04-26T03:21:46.777Z,9.50
2018-04-26T03:24:14.235Z,9.50
2018-04-26T03:26:41.665Z,9.50
2018-04-26T03:29:09.885Z,9.60
2018-04-26T03:31:37.327Z,9.50
2018-04-26T03:34:04.779Z,9.50
2018-04-26T03:36:32.218Z,9.50
2018-04-26T03:39:00.440Z,9.50
2018-04-26T03:41:27.904Z,9.50
2018-04-26T03:43:55.339Z,9.50
2018-04-26T03:46:22.797Z,9.50
2018-04-26T03:48:50.232Z,9.60
2018-04-26T03:51:18.459Z,9.50
2018-04-26T03:53:45.900Z,9.50
2018-04-26T03:56:13.353Z,9.50
2018-04-26T03:58:40.796Z,9.50
2018-04-26T04:01:20.955Z,9.40
2018-04-26T04:04:00.418Z,9.40
2018-04-26T04:06:27.853Z,9.40
2018-04-26T04:08:55.305Z,9.40
2018-04-26T04:11:22.759Z,9.40
2018-04-26T04:13:50.191Z,9.40
2018-04-26T04:16:17.661Z,9.40
2018-04-26T04:18:45.089Z,9.40
2018-04-26T04:21:12.534Z,9.40
2018-04-26T04:23:39.991Z,9.30
2018-04-26T04:26:07.440Z,9.30
2018-04-26T04:28:34.928Z,9.20
2018-04-26T04:31:02.347Z,9.20
2018-04-26T04:33:29.805Z,9.20
2018-04-26T04:35:57.247Z,9.10
2018-04-26T04:38:24.694Z,9.10
2018-04-26T04:40:52.136Z,9.10
2018-04-26T04:43:20.371Z,9.10
2018-04-26T04:45:47.840Z,9.00
2018-04-26T04:48:15.296Z,9.00
2018-04-26T04:50:42.750Z,9.00
2018-04-26T04:53:10.189Z,8.90
2018-04-26T04:55:37.649Z,8.90
2018-04-26T04:58:05.121Z,8.70
2018-04-26T05:00:32.580Z,8.70
2018-04-26T05:03:00.023Z,8.80
2018-04-26T05:05:27.471Z,8.90
2018-04-26T05:07:54.912Z,9.00
2018-04-26T05:10:22.406Z,9.10
2018-04-26T05:12:49.873Z,9.10
2018-04-26T05:15:17.313Z,9.10
2018-04-26T05:17:45.524Z,9.00
2018-04-26T05:20:13.736Z,9.10
2018-04-26T05:22:41.236Z,9.10
2018-04-26T05:25:08.651Z,9.20
2018-04-26T05:27:36.106Z,9.30
2018-04-26T05:30:03.643Z,9.20
2018-04-26T05:32:31.013Z,9.20
2018-04-26T05:34:58.466Z,9.30
2018-04-26T05:37:25.908Z,9.40
2018-04-26T05:39:53.367Z,9.50
2018-04-26T05:42:20.802Z,9.70
2018-04-26T05:44:48.265Z,9.70
2018-04-26T05:47:15.788Z,9.80
2018-04-26T05:49:43.927Z,9.80
2018-04-26T05:52:11.369Z,9.80
2018-04-26T05:54:38.804Z,9.80
2018-04-26T05:57:06.247Z,9.90
2018-04-26T05:59:34.473Z,10.10
2018-04-26T06:02:01.918Z,10.10
2018-04-26T06:04:29.386Z,10.30
2018-04-26T06:06:56.831Z,10.30
2018-04-26T06:09:24.278Z,10.40
2018-04-26T06:11:51.729Z,10.40
2018-04-26T06:14:19.179Z,10.50
2018-04-26T06:16:46.817Z,10.50
2018-04-26T06:19:14.200Z,10.50
2018-04-26T06:21:41.642Z,10.60
2018-04-26T06:24:09.103Z,10.70
2018-04-26T06:26:36.549Z,10.80
2018-04-26T06:29:03.998Z,10.90
2018-04-26T06:31:31.459Z,11.00
2018-04-26T06:33:58.904Z,11.10
2018-04-26T06:36:26.370Z,11.20
2018-04-26T06:38:53.829Z,11.50
2018-04-26T06:41:21.304Z,11.80
2018-04-26T06:43:48.742Z,12.10
2018-04-26T06:46:16.176Z,12.40
2018-04-26T06:48:44.390Z,12.90
2018-04-26T06:51:11.823Z,12.90
2018-04-26T06:53:40.024Z,13.30
2018-04-26T06:56:07.473Z,13.30
2018-04-26T06:58:34.942Z,13.40
2018-04-26T07:01:02.398Z,13.60
2018-04-26T07:03:29.867Z,13.50
2018-04-26T07:05:57.411Z,13.40
2018-04-26T07:08:24.869Z,13.10
2018-04-26T07:10:52.321Z,12.90
2018-04-26T07:13:19.784Z,12.80
2018-04-26T07:15:47.218Z,12.60
2018-04-26T07:18:14.673Z,12.50
2018-04-26T07:20:42.203Z,12.30
2018-04-26T07:23:09.647Z,12.30
2018-04-26T07:25:37.075Z,12.30
2018-04-26T07:28:05.295Z,12.30
2018-04-26T07:30:33.663Z,12.30
2018-04-26T07:33:01.107Z,12.30
2018-04-26T07:35:28.541Z,12.20
2018-04-26T07:37:55.991Z,12.20
2018-04-26T07:40:24.194Z,12.20
2018-04-26T07:42:51.638Z,12.20
2018-04-26T07:45:19.067Z,12.20
2018-04-26T07:47:46.497Z,12.10
2018-04-26T07:50:13.948Z,12.20
2018-04-26T07:52:41.383Z,12.20
2018-04-26T07:55:08.831Z,12.20
2018-04-26T07:57:36.274Z,12.30
2018-04-26T08:00:03.699Z,12.40
2018-04-26T08:02:31.906Z,12.40
2018-04-26T08:04:59.333Z,12.40
2018-04-26T08:07:27.530Z,12.40
2018-04-26T08:09:54.954Z,12.40
2018-04-26T08:12:22.393Z,12.30
2018-04-26T08:14:49.823Z,12.20
2018-04-26T08:17:17.271Z,12.30
2018-04-26T08:19:44.819Z,12.40
2018-04-26T08:22:12.909Z,12.60
2018-04-26T08:24:40.337Z,12.60
2018-04-26T08:27:08.532Z,12.60
2018-04-26T08:29:35.961Z,12.60
2018-04-26T08:32:04.166Z,12.70
2018-04-26T08:34:31.603Z,12.70
2018-04-26T08:36:59.839Z,12.90
2018-04-26T08:39:27.273Z,12.90
2018-04-26T08:41:54.702Z,13.00
2018-04-26T08:44:22.175Z,13.00
2018-04-26T08:46:49.583Z,13.10
2018-04-26T08:49:17.000Z,13.20
2018-04-26T08:51:44.434Z,13.20
2018-04-26T08:54:11.849Z,13.30
2018-04-26T08:56:39.289Z,13.40
2018-04-26T08:59:06.715Z,13.50
2018-04-26T09:01:34.168Z,13.70
2018-04-26T09:04:01.587Z,13.80
2018-04-26T09:06:29.023Z,14.00
2018-04-26T09:08:56.455Z,14.10
2018-04-26T09:11:23.878Z,14.40
2018-04-26T09:13:52.234Z,14.80
2018-04-26T09:16:19.663Z,14.70
2018-04-26T09:18:47.095Z,14.80
2018-04-26T09:21:15.234Z,14.50
2018-04-26T09:23:43.418Z,14.60
2018-04-26T09:26:10.838Z,14.60
2018-04-26T09:28:38.531Z,14.80
2018-04-26T09:31:06.722Z,15.00
2018-04-26T09:33:34.144Z,15.00
2018-04-26T09:36:01.575Z,15.00
2018-04-26T09:38:29.006Z,14.90
2018-04-26T09:40:56.439Z,15.00
2018-04-26T09:43:24.631Z,14.90
2018-04-26T09:45:52.067Z,14.90
2018-04-26T09:48:20.269Z,14.70
2018-04-26T09:50:47.690Z,14.70
2018-04-26T09:53:15.114Z,14.80
2018-04-26T09:55:42.542Z,15.10
2018-04-26T09:58:09.967Z,15.50
2018-04-26T10:00:42.984Z,16.80
2018-04-26T10:03:10.404Z,16.70
2018-04-26T10:08:40.806Z,16.60
2018-04-26T10:11:08.525Z,16.30
2018-04-26T10:13:35.970Z,16.20
2018-04-26T10:16:03.417Z,16.10
2018-04-26T10:18:30.866Z,16.20
2018-04-26T10:20:58.306Z,16.70
2018-04-26T10:23:26.741Z,18.00
2018-04-26T10:25:54.197Z,17.90
2018-04-26T10:28:21.632Z,17.80
2018-04-26T10:30:49.091Z,17.60
2018-04-26T10:33:16.557Z,17.60
2018-04-26T10:35:44.001Z,18.00
2018-04-26T10:38:11.448Z,18.00
2018-04-26T10:40:38.892Z,18.40
2018-04-26T10:43:06.348Z,18.40
2018-04-26T10:45:33.807Z,18.00
2018-04-26T10:48:01.250Z,17.50
2018-04-26T10:50:28.694Z,17.60
2018-04-26T10:52:56.928Z,18.90
2018-04-26T10:55:24.350Z,18.80
2018-04-26T10:57:51.908Z,18.80
2018-04-26T11:00:19.349Z,18.80
2018-04-26T11:02:46.824Z,18.70
2018-04-26T11:05:14.267Z,18.40
2018-04-26T11:07:41.717Z,18.00
2018-04-26T11:10:09.950Z,17.50
2018-04-26T11:12:37.385Z,17.50
2018-04-26T11:15:04.837Z,17.70
2018-04-26T11:17:32.635Z,18.20
2018-04-26T11:20:00.072Z,18.80
2018-04-26T11:22:27.507Z,19.40
2018-04-26T11:24:54.970Z,19.80
2018-04-26T11:27:22.409Z,20.20
2018-04-26T11:29:49.871Z,20.70
2018-04-26T11:32:17.309Z,21.10
2018-04-26T11:34:45.530Z,21.90
2018-04-26T11:37:12.982Z,21.80
2018-04-26T11:39:40.420Z,22.10
2018-04-26T11:42:07.870Z,22.20
2018-04-26T11:44:36.081Z,20.70
2018-04-26T11:47:03.532Z,20.60
2018-04-26T11:49:30.986Z,20.10
2018-04-26T11:51:58.467Z,20.10
2018-04-26T11:54:25.913Z,20.20
2018-04-26T11:56:53.354Z,20.80
2018-04-26T11:59:20.813Z,21.00
2018-04-26T12:01:48.258Z,20.30
2018-04-26T12:04:15.722Z,19.70
2018-04-26T12:06:43.163Z,19.90
2018-04-26T12:09:11.366Z,20.10
2018-04-26T12:11:38.818Z,20.10
2018-04-26T12:14:06.266Z,20.40
2018-04-26T12:16:33.708Z,20.40
2018-04-26T12:19:01.945Z,19.00
2018-04-26T12:21:29.510Z,19.00
2018-04-26T12:23:56.996Z,18.80
2018-04-26T12:26:25.194Z,18.60
2018-04-26T12:28:53.391Z,18.00
2018-04-26T12:31:20.866Z,17.90
2018-04-26T12:33:48.308Z,18.10
2018-04-26T12:36:15.765Z,18.50
2018-04-26T12:38:43.215Z,18.80
2018-04-26T12:41:10.668Z,18.90
2018-04-26T12:43:38.129Z,19.20
2018-04-26T12:46:05.563Z,20.10
2018-04-26T12:48:33.772Z,21.00
2018-04-26T12:51:01.233Z,21.00
2018-04-26T12:53:28.702Z,21.60
2018-04-26T12:55:56.140Z,21.90
2018-04-26T12:58:23.577Z,22.30
2018-04-26T13:00:51.046Z,22.40
2018-04-26T13:03:18.487Z,22.60
2018-04-26T13:05:45.925Z,22.70
2018-04-26T13:08:14.162Z,22.20
2018-04-26T13:10:42.385Z,22.00
2018-04-26T13:13:10.596Z,22.20
2018-04-26T13:15:38.047Z,22.20
2018-04-26T13:18:05.511Z,22.30
2018-04-26T13:20:32.953Z,22.10
2018-04-26T13:23:00.398Z,22.00
2018-04-26T13:25:27.847Z,21.90
2018-04-26T13:27:55.316Z,21.30
2018-04-26T13:30:22.810Z,20.50
2018-04-26T13:32:50.322Z,20.30
2018-04-26T13:35:17.779Z,20.10
2018-04-26T13:37:45.207Z,19.30
2018-04-26T13:40:12.669Z,19.20
2018-04-26T13:42:40.149Z,19.20
2018-04-26T13:45:07.841Z,19.80
2018-04-26T13:47:35.324Z,20.90
2018-04-26T13:50:03.574Z,22.40
2018-04-26T13:52:31.020Z,22.30
2018-04-26T13:54:58.460Z,21.90
2018-04-26T13:57:25.907Z,21.30
2018-04-26T13:59:53.362Z,21.10
2018-04-26T14:02:20.818Z,21.10
2018-04-26T14:04:48.268Z,20.60
2018-04-26T14:07:19.761Z,20.70
2018-04-26T14:09:47.471Z,21.30
2018-04-26T14:12:14.915Z,21.90
2018-04-26T14:14:42.366Z,22.60
2018-04-26T14:17:09.819Z,23.10
2018-04-26T14:19:37.280Z,23.60
2018-04-26T14:22:04.730Z,24.10
2018-04-26T14:24:32.184Z,24.50
2018-04-26T14:26:59.638Z,24.00
2018-04-26T14:29:27.094Z,23.30
2018-04-26T14:31:54.522Z,22.90
2018-04-26T14:34:21.970Z,22.70
2018-04-26T14:36:49.409Z,22.90
2018-04-26T14:39:16.862Z,23.30
2018-04-26T14:41:44.312Z,23.80
2018-04-26T14:44:11.765Z,23.90
2018-04-26T14:46:39.210Z,24.00
2018-04-26T14:49:06.709Z,24.00
2018-04-26T14:51:34.169Z,24.00
2018-04-26T14:54:02.368Z,23.20
2018-04-26T14:56:30.589Z,23.00
2018-04-26T14:58:58.030Z,22.90
2018-04-26T15:01:25.475Z,22.90
2018-04-26T15:03:53.693Z,22.80
2018-04-26T15:06:21.163Z,22.80
2018-04-26T15:08:48.604Z,23.30
2018-04-26T15:11:16.318Z,23.50
2018-04-26T15:13:44.529Z,23.60
2018-04-26T15:16:11.976Z,23.60
2018-04-26T15:18:39.452Z,23.40
2018-04-26T15:21:06.908Z,23.10
2018-04-26T15:23:34.908Z,23.50
2018-04-26T15:26:02.419Z,24.30
2018-04-26T15:28:29.891Z,24.70
2018-04-26T15:30:57.360Z,24.70
2018-04-26T15:33:24.813Z,25.00
2018-04-26T15:35:52.257Z,25.00
2018-04-26T15:38:19.707Z,24.20
2018-04-26T15:40:47.152Z,23.20
2018-04-26T15:43:14.611Z,22.70
2018-04-26T15:45:42.053Z,22.60
2018-04-26T15:48:11.225Z,23.10
2018-04-26T15:50:53.532Z,23.80
2018-04-26T15:53:34.042Z,24.80
2018-04-26T15:56:13.337Z,24.80
2018-04-26T16:02:02.878Z,25.10
2018-04-26T16:04:42.050Z,24.70
2018-04-26T16:07:43.349Z,23.30
2018-04-26T16:10:22.648Z,23.20
2018-04-26T16:13:07.994Z,23.70
2018-04-26T16:15:53.051Z,24.10
2018-04-26T16:18:38.376Z,24.60
2018-04-26T16:21:23.589Z,24.80
2018-04-26T16:24:04.083Z,24.60
2018-04-26T16:29:56.222Z,22.20
2018-04-26T16:32:36.392Z,20.70
2018-04-26T16:35:20.625Z,20.70
2018-04-26T16:38:06.410Z,18.60
2018-04-26T16:40:34.637Z,17.80
2018-04-26T16:43:02.129Z,17.70
2018-04-26T16:45:29.579Z,17.30
2018-04-26T16:47:57.037Z,17.00
2018-04-26T16:50:24.489Z,16.70
2018-04-26T16:52:51.930Z,16.40
2018-04-26T16:55:19.370Z,16.20
2018-04-26T16:57:46.816Z,16.00
2018-04-26T17:00:14.302Z,15.80
2018-04-26T17:02:41.744Z,15.60
2018-04-26T17:05:09.220Z,15.40
2018-04-26T17:07:36.668Z,15.30
2018-04-26T17:10:04.129Z,15.20
2018-04-26T17:12:31.563Z,15.10
2018-04-26T17:14:59.022Z,15.00
2018-04-26T17:17:26.470Z,14.90
2018-04-26T17:19:53.944Z,14.80
2018-04-26T17:22:21.495Z,14.80
2018-04-26T17:24:48.956Z,14.70
2018-04-26T17:27:16.480Z,14.60
2018-04-26T17:29:43.995Z,14.40
2018-04-26T17:32:11.503Z,14.10
2018-04-26T17:34:39.729Z,13.70
2018-04-26T17:37:07.285Z,13.70
2018-04-26T17:39:34.738Z,13.60
2018-04-26T17:42:02.275Z,13.40
2018-04-26T17:44:29.765Z,13.20
2018-04-26T17:46:57.216Z,13.00
2018-04-26T17:49:24.989Z,12.80
2018-04-26T17:51:52.481Z,12.60
2018-04-26T17:54:19.910Z,12.50
2018-04-26T17:56:47.369Z,12.30
2018-04-26T17:59:14.803Z,12.10
2018-04-26T18:01:42.256Z,11.90
2018-04-26T18:04:09.702Z,11.80
2018-04-26T18:06:37.177Z,11.60
2018-04-26T18:09:05.529Z,11.50
2018-04-26T18:11:33.329Z,11.40
2018-04-26T18:14:00.775Z,11.20
2018-04-26T18:16:28.208Z,11.00
2018-04-26T18:18:55.672Z,10.90
2018-04-26T18:21:23.109Z,10.70
2018-04-26T18:23:50.560Z,10.60
2018-04-26T18:26:18.776Z,10.30
2018-04-26T18:28:46.218Z,10.30
2018-04-26T18:31:13.673Z,10.20
2018-04-26T18:33:41.118Z,10.00
2018-04-26T18:36:08.567Z,9.90
2018-04-26T18:38:35.999Z,9.90
2018-04-26T18:41:04.204Z,9.80
2018-04-26T18:43:31.744Z,9.80
2018-04-26T18:45:59.113Z,9.70
2018-04-26T18:48:26.562Z,9.60
2018-04-26T18:50:54.000Z,9.50
2018-04-26T18:53:22.210Z,9.20
2018-04-26T18:55:49.679Z,9.20
2018-04-26T18:58:17.288Z,9.10
2018-04-26T19:00:44.772Z,8.90
2018-04-26T19:03:12.220Z,8.70
2018-04-26T19:05:39.793Z,8.60
2018-04-26T19:08:07.250Z,8.60
2018-04-26T19:10:34.791Z,8.60
2018-04-26T19:13:02.230Z,8.60
2018-04-26T19:15:29.780Z,8.50
2018-04-26T19:17:57.253Z,8.40
2018-04-26T19:20:24.699Z,8.40
2018-04-26T19:22:52.225Z,8.40
2018-04-26T19:25:20.517Z,8.30
2018-04-26T19:27:48.083Z,8.20
2018-04-26T19:30:15.456Z,8.30
2018-04-26T19:32:42.894Z,8.30
2018-04-26T19:35:11.111Z,8.20
2018-04-26T19:37:39.412Z,8.20
2018-04-26T19:40:06.899Z,8.20
2018-04-26T19:42:35.110Z,8.20
2018-04-26T19:45:02.542Z,8.20
2018-04-26T19:47:30.583Z,8.20
2018-04-26T19:49:58.068Z,8.20
2018-04-26T19:52:26.270Z,8.20
2018-04-26T19:54:53.740Z,8.20
2018-04-26T19:57:21.978Z,8.10
2018-04-26T19:59:50.197Z,8.10
2018-04-26T20:02:17.640Z,8.10
2018-04-26T20:04:45.097Z,8.00
2018-04-26T20:07:12.561Z,8.00
2018-04-26T20:09:40.025Z,7.80
2018-04-26T20:12:07.485Z,7.70
2018-04-26T20:14:35.018Z,7.60
2018-04-26T20:17:02.485Z,7.50
2018-04-26T20:19:29.959Z,7.40
2018-04-26T20:21:57.409Z,7.40
2018-04-26T20:24:24.849Z,7.30
2018-04-26T20:26:52.295Z,7.40
2018-04-26T20:29:19.742Z,7.40
2018-04-26T20:31:47.177Z,7.40
2018-04-26T20:34:14.621Z,7.30
2018-04-26T20:36:42.852Z,7.20
2018-04-26T20:39:10.283Z,7.20
2018-04-26T20:41:49.713Z,7.20
2018-04-26T20:44:28.972Z,7.10
2018-04-26T20:46:56.448Z,7.10
2018-04-26T20:49:23.905Z,7.00
2018-04-26T20:51:51.366Z,6.90
2018-04-26T20:54:19.280Z,6.80
2018-04-26T20:56:47.484Z,6.60
2018-04-26T20:59:14.945Z,6.60
2018-04-26T21:01:42.384Z,6.50
2018-04-26T21:04:10.612Z,6.40
2018-04-26T21:06:38.074Z,6.40
2018-04-26T21:09:05.533Z,6.40
2018-04-26T21:11:32.974Z,6.50
2018-04-26T21:14:00.443Z,6.50
2018-04-26T21:16:27.899Z,6.40
2018-04-26T21:18:55.374Z,6.40
2018-04-26T21:21:22.828Z,6.30
2018-04-26T21:23:50.297Z,6.20
2018-04-26T21:26:17.745Z,6.20
2018-04-26T21:28:45.190Z,6.10
2018-04-26T21:31:12.639Z,6.10
2018-04-26T21:33:40.098Z,6.10
2018-04-26T21:36:07.554Z,6.00
2018-04-26T21:38:35.045Z,6.00
2018-04-26T21:41:02.481Z,6.00
2018-04-26T21:43:29.948Z,5.90
2018-04-26T21:45:57.440Z,5.90
2018-04-26T21:48:25.709Z,5.80
2018-04-26T21:50:59.757Z,5.80
2018-04-26T21:53:32.812Z,5.70
2018-04-26T21:56:06.635Z,5.60
2018-04-26T21:58:39.686Z,5.60
2018-04-26T22:01:13.656Z,5.50
2018-04-26T22:03:51.797Z,5.50
2018-04-26T22:06:19.299Z,5.50
2018-04-26T22:08:46.722Z,5.40
2018-04-26T22:11:14.916Z,5.30
2018-04-26T22:13:42.370Z,5.30
2018-04-26T22:16:09.834Z,5.30
2018-04-26T22:18:37.301Z,5.20
2018-04-26T22:21:04.749Z,5.30
2018-04-26T22:23:32.190Z,5.30
2018-04-26T22:26:00.549Z,5.20
2018-04-26T22:28:28.764Z,5.10
2018-04-26T22:30:56.204Z,5.10
2018-04-26T22:33:23.650Z,5.10
2018-04-26T22:35:51.091Z,5.00
2018-04-26T22:38:18.566Z,5.00
2018-04-26T22:40:46.013Z,5.00
2018-04-26T22:43:13.433Z,4.90
2018-04-26T22:45:41.655Z,4.80
2018-04-26T22:48:09.114Z,4.80
2018-04-26T22:50:36.552Z,4.80
2018-04-26T22:53:03.989Z,4.70
2018-04-26T22:55:32.201Z,4.60
2018-04-26T22:57:59.656Z,4.60
2018-04-26T23:00:27.112Z,4.60
2018-04-26T23:02:54.569Z,4.50
2018-04-26T23:05:22.016Z,4.50
2018-04-26T23:07:49.472Z,4.50
2018-04-26T23:10:16.923Z,4.50
2018-04-26T23:12:44.352Z,4.50
2018-04-26T23:15:12.577Z,4.50
2018-04-26T23:17:40.010Z,4.50
2018-04-26T23:20:07.459Z,4.40
2018-04-26T23:22:34.898Z,4.30
2018-04-26T23:25:03.137Z,4.20
2018-04-26T23:27:30.574Z,4.20
2018-04-26T23:29:58.018Z,4.10
2018-04-26T23:32:25.492Z,4.10
2018-04-26T23:34:52.944Z,4.00
2018-04-26T23:37:20.377Z,4.00
2018-04-26T23:39:48.594Z,3.90
2018-04-26T23:42:16.059Z,3.90
2018-04-26T23:44:43.514Z,3.80
2018-04-26T23:47:10.969Z,3.80
2018-04-26T23:49:38.430Z,3.70
2018-04-26T23:52:05.856Z,3.70
2018-04-26T23:54:33.312Z,3.70
2018-04-26T23:57:00.753Z,3.70
2018-04-26T23:59:29.061Z,3.60
